Time;durP1;ratioP1;P1;durP2;ratioP2;P2;SDS_P1;SDS_P2;PMS_P1;PMS_P2;Temp;Humidity;BMP_temperature;BMP_pressure;BME280_temperature;BME280_humidity;BME280_pressure;Samples;Min_cycle;Max_cycle;Signal;HPM_P1;HPM_P2
2022/03/22 00:01:25;;;;;;;14.75;8.50;;;;;;;;;;4897096;29;20029;-66
2022/03/22 00:03:52;;;;;;;13.35;7.53;;;;;;;;;;4897684;29;20063;-66
2022/03/22 00:06:18;;;;;;;13.88;7.93;;;;;;;;;;4897338;29;20115;-65
2022/03/22 00:08:45;;;;;;;13.15;8.20;;;;;;;;;;4897244;29;20488;-66
2022/03/22 00:11:11;;;;;;;13.45;7.28;;;;;;;;;;4897224;29;20062;-66
2022/03/22 00:13:42;;;;;;;16.27;8.20;;;;;;;;;;4897237;29;20043;-66
2022/03/22 00:16:08;;;;;;;17.55;9.07;;;;;;;;;;4897294;29;20515;-65
2022/03/22 00:18:35;;;;;;;17.60;9.23;;;;;;;;;;4896900;29;20041;-69
2022/03/22 00:21:01;;;;;;;18.55;10.35;;;;;;;;;;4897003;29;20043;-68
2022/03/22 00:23:28;;;;;;;17.80;9.57;;;;;;;;;;4897125;29;20025;-66
2022/03/22 00:25:54;;;;;;;16.23;8.57;;;;;;;;;;4897118;29;20048;-64
2022/03/22 00:28:21;;;;;;;16.45;8.95;;;;;;;;;;4897194;29;20037;-73
2022/03/22 00:30:47;;;;;;;14.50;8.60;;;;;;;;;;4897466;29;20043;-71
2022/03/22 00:33:13;;;;;;;20.23;10.80;;;;;;;;;;4897354;29;20392;-70
2022/03/22 00:35:40;;;;;;;26.70;15.45;;;;;;;;;;4897757;29;20043;-68
2022/03/22 00:38:12;;;;;;;26.17;13.48;;;;;;;;;;4897226;29;20032;-66
2022/03/22 00:40:39;;;;;;;21.13;12.68;;;;;;;;;;4897192;29;20037;-66
2022/03/22 00:43:05;;;;;;;22.30;12.07;;;;;;;;;;4896891;29;20501;-67
2022/03/22 00:45:32;;;;;;;21.80;11.90;;;;;;;;;;4895599;29;20048;-67
2022/03/22 00:47:59;;;;;;;17.63;9.60;;;;;;;;;;4896883;29;20031;-67
2022/03/22 00:50:28;;;;;;;17.63;9.48;;;;;;;;;;4896786;29;20040;-65
2022/03/22 00:52:56;;;;;;;18.20;9.68;;;;;;;;;;4895655;29;20480;-67
2022/03/22 00:55:23;;;;;;;15.85;8.55;;;;;;;;;;4900555;29;20059;-66
2022/03/22 00:57:51;;;;;;;15.35;9.13;;;;;;;;;;4900834;29;20029;-66
2022/03/22 01:00:18;;;;;;;14.25;8.70;;;;;;;;;;4899971;29;20399;-67
2022/03/22 01:02:49;;;;;;;17.02;9.25;;;;;;;;;;4900536;29;20024;-65
2022/03/22 01:05:19;;;;;;;20.55;9.00;;;;;;;;;;4900532;29;20068;-65
2022/03/22 01:07:50;;;;;;;15.68;8.95;;;;;;;;;;4900497;29;20033;-65
2022/03/22 01:10:17;;;;;;;18.40;8.30;;;;;;;;;;4899954;29;20040;-66
2022/03/22 01:12:44;;;;;;;16.70;9.25;;;;;;;;;;4900182;29;20032;-66
2022/03/22 01:15:19;;;;;;;17.10;9.20;;;;;;;;;;4900266;29;20092;-72
2022/03/22 01:17:54;;;;;;;15.88;8.95;;;;;;;;;;4900599;29;20032;-66
2022/03/22 01:20:25;;;;;;;15.38;7.88;;;;;;;;;;4900568;29;20032;-71
2022/03/22 01:22:52;;;;;;;15.68;9.13;;;;;;;;;;4908066;29;20048;-68
2022/03/22 01:25:22;;;;;;;22.13;11.25;;;;;;;;;;4918927;29;20036;-73
2022/03/22 01:27:48;;;;;;;20.05;11.07;;;;;;;;;;4919450;29;20459;-74
2022/03/22 01:30:19;;;;;;;24.10;11.73;;;;;;;;;;4919356;29;20543;-71
2022/03/22 01:32:47;;;;;;;20.33;11.43;;;;;;;;;;4919082;29;20411;-68
2022/03/22 01:35:12;;;;;;;18.30;10.25;;;;;;;;;;4918969;29;20479;-72
2022/03/22 01:37:39;;;;;;;22.00;10.85;;;;;;;;;;4918803;29;20503;-66
2022/03/22 01:40:07;;;;;;;20.77;10.90;;;;;;;;;;4918565;29;20062;-74
2022/03/22 01:42:34;;;;;;;19.77;11.30;;;;;;;;;;4918728;29;20395;-72
2022/03/22 01:45:00;;;;;;;18.48;10.80;;;;;;;;;;4918791;29;20079;-70
2022/03/22 01:47:25;;;;;;;17.55;10.57;;;;;;;;;;4918668;29;20394;-71
2022/03/22 01:49:52;;;;;;;16.17;9.43;;;;;;;;;;4918327;29;20028;-73
2022/03/22 01:52:21;;;;;;;16.02;8.80;;;;;;;;;;4918212;29;20051;-73
2022/03/22 01:54:50;;;;;;;20.80;9.82;;;;;;;;;;4918773;29;20040;-72
2022/03/22 01:57:20;;;;;;;17.08;9.05;;;;;;;;;;4909225;29;20493;-72
2022/03/22 01:59:47;;;;;;;18.42;9.07;;;;;;;;;;4918718;29;20114;-74
2022/03/22 02:07:49;;;;;;;18.00;9.25;;;;;;;;;;4918349;29;20029;-73
2022/03/22 02:10:15;;;;;;;18.45;10.90;;;;;;;;;;4917929;29;20028;-72
2022/03/22 02:12:45;;;;;;;20.67;10.75;;;;;;;;;;4902032;29;20072;-72
2022/03/22 02:15:15;;;;;;;21.10;11.48;;;;;;;;;;4879682;29;20049;-72
2022/03/22 02:17:44;;;;;;;24.63;11.55;;;;;;;;;;4879391;29;20397;-72
2022/03/22 02:20:10;;;;;;;22.63;11.85;;;;;;;;;;4880682;29;20456;-71
2022/03/22 02:22:48;;;;;;;19.88;12.25;;;;;;;;;;4880233;29;20132;-74
2022/03/22 02:25:15;;;;;;;22.67;11.50;;;;;;;;;;4880389;29;20047;-74
2022/03/22 02:27:44;;;;;;;20.98;12.65;;;;;;;;;;4880267;29;20025;-73
2022/03/22 02:30:12;;;;;;;22.23;12.55;;;;;;;;;;4895933;29;20043;-73
2022/03/22 02:32:40;;;;;;;23.20;12.80;;;;;;;;;;4898806;29;20065;-71
2022/03/22 02:35:07;;;;;;;24.40;14.40;;;;;;;;;;4897960;29;20135;-73
2022/03/22 02:37:33;;;;;;;21.48;12.70;;;;;;;;;;4898829;29;20075;-72
2022/03/22 02:39:59;;;;;;;21.33;11.50;;;;;;;;;;4898929;29;20045;-73
2022/03/22 02:42:25;;;;;;;22.67;11.63;;;;;;;;;;4898433;29;20057;-73
2022/03/22 02:44:51;;;;;;;18.60;10.43;;;;;;;;;;4898203;29;20090;-75
2022/03/22 02:47:16;;;;;;;16.67;9.82;;;;;;;;;;4898416;29;20078;-71
2022/03/22 02:49:42;;;;;;;22.00;11.07;;;;;;;;;;4898617;29;20037;-74
2022/03/22 02:52:08;;;;;;;18.30;10.18;;;;;;;;;;4898381;29;20062;-72
2022/03/22 02:54:34;;;;;;;18.48;10.30;;;;;;;;;;4898141;29;20036;-72
2022/03/22 02:56:59;;;;;;;17.92;10.30;;;;;;;;;;4898073;29;20028;-73
2022/03/22 02:59:25;;;;;;;17.80;10.35;;;;;;;;;;4895905;29;20338;-66
2022/03/22 03:01:51;;;;;;;17.63;10.48;;;;;;;;;;4898363;29;20025;-72
2022/03/22 03:04:17;;;;;;;22.88;10.88;;;;;;;;;;4898224;29;20488;-73
2022/03/22 03:06:45;;;;;;;19.50;10.60;;;;;;;;;;4898112;29;20028;-73
2022/03/22 03:09:11;;;;;;;22.77;11.75;;;;;;;;;;4898053;29;20052;-73
2022/03/22 03:11:37;;;;;;;18.67;11.30;;;;;;;;;;4897453;29;20037;-73
2022/03/22 03:16:47;;;;;;;20.58;11.73;;;;;;;;;;4897739;29;20161;-72
2022/03/22 03:19:13;;;;;;;19.45;10.55;;;;;;;;;;4897372;29;20052;-71
2022/03/22 03:21:39;;;;;;;18.85;10.98;;;;;;;;;;4897679;29;20496;-75
2022/03/22 03:24:04;;;;;;;22.85;11.70;;;;;;;;;;4897944;29;20028;-74
2022/03/22 03:26:30;;;;;;;20.52;12.15;;;;;;;;;;4898041;29;20043;-73
2022/03/22 03:28:56;;;;;;;22.17;12.05;;;;;;;;;;4897888;29;20037;-75
2022/03/22 03:31:22;;;;;;;28.52;13.25;;;;;;;;;;4899556;29;20024;-73
2022/03/22 03:33:48;;;;;;;25.58;13.27;;;;;;;;;;4916739;29;20081;-74
2022/03/22 03:36:13;;;;;;;25.13;12.07;;;;;;;;;;4916696;29;20032;-73
2022/03/22 03:38:42;;;;;;;24.15;10.23;;;;;;;;;;4916346;29;20463;-71
2022/03/22 03:43:53;;;;;;;22.42;11.45;;;;;;;;;;4916453;29;20044;-74
2022/03/22 03:49:06;;;;;;;29.20;11.15;;;;;;;;;;4915773;29;20064;-65
2022/03/22 03:51:33;;;;;;;17.45;10.77;;;;;;;;;;4915877;29;20042;-73
2022/03/22 03:53:59;;;;;;;27.58;12.15;;;;;;;;;;4916117;29;20037;-73
2022/03/22 03:56:25;;;;;;;22.45;10.48;;;;;;;;;;4915874;29;20091;-71
2022/03/22 03:58:51;;;;;;;27.23;12.10;;;;;;;;;;4915701;29;20468;-72
2022/03/22 04:01:17;;;;;;;28.52;13.25;;;;;;;;;;4899380;29;20035;-73
2022/03/22 04:03:47;;;;;;;25.48;13.32;;;;;;;;;;4894268;29;20049;-72
2022/03/22 04:06:14;;;;;;;21.88;11.68;;;;;;;;;;4897383;29;20035;-72
2022/03/22 04:08:40;;;;;;;24.33;11.73;;;;;;;;;;4897101;29;20092;-73
2022/03/22 04:11:06;;;;;;;25.92;10.98;;;;;;;;;;4897110;29;20472;-72
2022/03/22 04:13:31;;;;;;;18.13;10.30;;;;;;;;;;4897072;29;20054;-75
2022/03/22 04:15:57;;;;;;;21.73;9.98;;;;;;;;;;4896158;29;20056;-75
2022/03/22 04:18:23;;;;;;;26.10;10.77;;;;;;;;;;4895895;29;20040;-74
2022/03/22 04:20:49;;;;;;;24.42;10.70;;;;;;;;;;4896654;29;20164;-73
2022/03/22 04:23:15;;;;;;;23.35;10.75;;;;;;;;;;4895136;29;20488;-72
2022/03/22 04:25:41;;;;;;;17.80;10.27;;;;;;;;;;4896723;29;20040;-72
2022/03/22 04:33:36;;;;;;;25.52;12.05;;;;;;;;;;4896055;29;20040;-73
2022/03/22 04:36:03;;;;;;;33.08;12.60;;;;;;;;;;4895264;29;20028;-72
2022/03/22 04:38:28;;;;;;;31.63;13.38;;;;;;;;;;4896603;29;20041;-74
2022/03/22 04:40:54;;;;;;;34.35;14.70;;;;;;;;;;4896591;29;20547;-75
2022/03/22 04:43:20;;;;;;;26.70;11.70;;;;;;;;;;4896261;29;20515;-73
2022/03/22 04:45:46;;;;;;;21.95;11.35;;;;;;;;;;4896092;29;20084;-70
2022/03/22 04:48:13;;;;;;;18.60;10.55;;;;;;;;;;4896707;29;20069;-74
2022/03/22 04:50:38;;;;;;;23.38;11.20;;;;;;;;;;4896069;29;20036;-69
2022/03/22 04:58:33;;;;;;;28.08;11.98;;;;;;;;;;4896787;29;20033;-70
2022/03/22 05:00:59;;;;;;;28.27;11.30;;;;;;;;;;4896350;29;20460;-75
2022/03/22 05:03:24;;;;;;;21.00;9.60;;;;;;;;;;4896719;29;20053;-74
2022/03/22 05:08:35;;;;;;;21.25;11.68;;;;;;;;;;4891470;29;20033;-72
2022/03/22 05:11:00;;;;;;;28.00;12.65;;;;;;;;;;4894453;29;20021;-73
2022/03/22 05:13:26;;;;;;;25.83;12.18;;;;;;;;;;4895436;29;20099;-72
2022/03/22 05:15:52;;;;;;;26.13;11.88;;;;;;;;;;4892365;29;20041;-73
2022/03/22 05:18:22;;;;;;;24.40;12.43;;;;;;;;;;4895358;29;20055;-70
2022/03/22 05:20:47;;;;;;;39.08;13.48;;;;;;;;;;4897201;29;20035;-74
2022/03/22 05:23:13;;;;;;;28.38;11.60;;;;;;;;;;4897412;29;20036;-75
2022/03/22 05:25:39;;;;;;;24.55;11.55;;;;;;;;;;4897230;29;20028;-74
2022/03/22 05:28:05;;;;;;;23.05;12.85;;;;;;;;;;4895767;29;20421;-77
2022/03/22 05:30:31;;;;;;;27.75;12.57;;;;;;;;;;4896689;29;20029;-78
2022/03/22 05:32:59;;;;;;;27.13;13.18;;;;;;;;;;4894338;29;20064;-72
2022/03/22 05:35:25;;;;;;;22.08;11.13;;;;;;;;;;4895761;29;20084;-76
2022/03/22 05:37:51;;;;;;;31.02;12.20;;;;;;;;;;4897022;29;20040;-77
2022/03/22 05:40:18;;;;;;;20.35;11.00;;;;;;;;;;4896791;29;20024;-77
2022/03/22 05:42:43;;;;;;;23.65;11.68;;;;;;;;;;4899617;29;20080;-74
2022/03/22 05:45:11;;;;;;;20.55;11.13;;;;;;;;;;4899984;29;20025;-78
2022/03/22 05:47:39;;;;;;;22.85;11.00;;;;;;;;;;4900032;29;20412;-74
2022/03/22 05:50:06;;;;;;;25.00;10.10;;;;;;;;;;4900147;29;20035;-78
2022/03/22 05:52:32;;;;;;;27.58;13.55;;;;;;;;;;4899875;29;20043;-78
2022/03/22 05:54:58;;;;;;;26.83;14.07;;;;;;;;;;4898386;29;20029;-77
2022/03/22 05:57:29;;;;;;;26.20;13.80;;;;;;;;;;4900189;29;20035;-77
2022/03/22 05:59:55;;;;;;;26.50;11.68;;;;;;;;;;4913756;29;20048;-80
2022/03/22 06:02:21;;;;;;;26.50;11.90;;;;;;;;;;4899229;29;20032;-78
2022/03/22 06:04:48;;;;;;;20.05;12.25;;;;;;;;;;4899589;29;20523;-77
2022/03/22 06:07:14;;;;;;;23.55;12.70;;;;;;;;;;4899510;29;20066;-77
2022/03/22 06:09:39;;;;;;;19.23;11.98;;;;;;;;;;4899227;29;20531;-76
2022/03/22 06:12:06;;;;;;;23.35;12.38;;;;;;;;;;4898615;29;20084;-77
2022/03/22 06:14:32;;;;;;;20.70;11.30;;;;;;;;;;4898947;29;20523;-77
2022/03/22 06:16:59;;;;;;;25.25;11.55;;;;;;;;;;4899013;29;20040;-78
2022/03/22 06:19:25;;;;;;;26.75;12.45;;;;;;;;;;4898686;29;20174;-76
2022/03/22 06:21:51;;;;;;;21.13;11.23;;;;;;;;;;4898971;29;20033;-76
2022/03/22 06:24:17;;;;;;;27.15;11.60;;;;;;;;;;4899234;29;20108;-75
2022/03/22 06:26:42;;;;;;;20.75;10.05;;;;;;;;;;4899442;29;20076;-78
2022/03/22 06:29:08;;;;;;;22.63;9.98;;;;;;;;;;4899669;29;20107;-73
2022/03/22 06:31:35;;;;;;;20.40;10.30;;;;;;;;;;4898934;29;20033;-78
2022/03/22 06:34:01;;;;;;;19.20;10.10;;;;;;;;;;4913660;29;20096;-75
2022/03/22 06:36:28;;;;;;;28.10;11.75;;;;;;;;;;4899093;29;20028;-77
2022/03/22 06:38:54;;;;;;;18.20;10.30;;;;;;;;;;4899071;29;20065;-76
2022/03/22 06:41:20;;;;;;;16.98;10.02;;;;;;;;;;4899131;29;20033;-75
2022/03/22 06:43:46;;;;;;;16.98;8.50;;;;;;;;;;4898947;29;20167;-77
2022/03/22 06:46:12;;;;;;;18.52;9.75;;;;;;;;;;4898963;29;20487;-75
2022/03/22 06:48:38;;;;;;;15.70;9.82;;;;;;;;;;4899391;29;20032;-77
2022/03/22 06:51:04;;;;;;;15.40;9.68;;;;;;;;;;4899012;29;20052;-76
2022/03/22 06:53:29;;;;;;;18.83;9.23;;;;;;;;;;4898835;29;20074;-77
2022/03/22 06:55:55;;;;;;;17.05;9.75;;;;;;;;;;4899006;29;20036;-77
2022/03/22 06:58:24;;;;;;;16.15;9.27;;;;;;;;;;4898597;29;20044;-75
2022/03/22 07:00:50;;;;;;;17.08;10.07;;;;;;;;;;4898301;29;20035;-74
2022/03/22 07:03:16;;;;;;;22.20;10.07;;;;;;;;;;4898594;29;20045;-76
2022/03/22 07:05:47;;;;;;;14.18;9.50;;;;;;;;;;4897877;29;20100;-77
2022/03/22 07:08:14;;;;;;;17.30;8.82;;;;;;;;;;4899042;29;20404;-77
2022/03/22 07:10:40;;;;;;;19.55;9.13;;;;;;;;;;4898560;29;20514;-74
2022/03/22 07:13:10;;;;;;;14.18;8.55;;;;;;;;;;4898611;29;20066;-77
2022/03/22 07:15:39;;;;;;;17.40;8.75;;;;;;;;;;4897061;29;20088;-76
2022/03/22 07:18:07;;;;;;;16.17;8.60;;;;;;;;;;4898596;29;20445;-76
2022/03/22 07:20:34;;;;;;;13.52;8.18;;;;;;;;;;4898370;29;20036;-76
2022/03/22 07:23:00;;;;;;;15.20;7.93;;;;;;;;;;4898207;29;20177;-75
2022/03/22 07:25:26;;;;;;;15.50;7.68;;;;;;;;;;4898184;29;20139;-75
2022/03/22 07:27:52;;;;;;;13.25;7.80;;;;;;;;;;4898089;29;20043;-76
2022/03/22 07:30:18;;;;;;;14.77;8.25;;;;;;;;;;4897602;29;20024;-74
2022/03/22 07:32:45;;;;;;;16.42;9.82;;;;;;;;;;4897813;29;20496;-77
2022/03/22 07:35:12;;;;;;;13.77;8.00;;;;;;;;;;4898236;29;20021;-75
2022/03/22 07:37:38;;;;;;;15.98;8.85;;;;;;;;;;4897851;29;20514;-77
2022/03/22 07:40:07;;;;;;;14.75;8.15;;;;;;;;;;4897914;29;20072;-77
2022/03/22 07:42:34;;;;;;;13.55;8.07;;;;;;;;;;4897884;29;20507;-77
2022/03/22 07:45:03;;;;;;;14.50;8.05;;;;;;;;;;4898063;29;20040;-78
2022/03/22 07:47:30;;;;;;;12.90;8.27;;;;;;;;;;4897978;29;20029;-76
2022/03/22 07:55:28;;;;;;;11.95;7.32;;;;;;;;;;4897742;29;20116;-72
2022/03/22 07:57:54;;;;;;;13.75;7.85;;;;;;;;;;4897660;29;20024;-72
2022/03/22 08:00:20;;;;;;;14.73;9.40;;;;;;;;;;4897598;29;20472;-72
2022/03/22 08:02:57;;;;;;;11.60;5.90;;;;;;;;;;4897109;29;20028;-71
2022/03/22 08:05:24;;;;;;;14.20;7.32;;;;;;;;;;4896676;29;20036;-72
2022/03/22 08:07:50;;;;;;;11.07;6.97;;;;;;;;;;4897282;29;20033;-75
2022/03/22 08:10:16;;;;;;;14.02;6.78;;;;;;;;;;4897385;29;20060;-73
2022/03/22 08:12:42;;;;;;;10.05;6.43;;;;;;;;;;4897122;29;20404;-71
2022/03/22 08:15:09;;;;;;;9.43;7.05;;;;;;;;;;4897375;29;20051;-71
2022/03/22 08:17:37;;;;;;;11.95;6.88;;;;;;;;;;4897250;29;20452;-71
2022/03/22 08:20:04;;;;;;;11.05;6.72;;;;;;;;;;4897182;29;20040;-69
2022/03/22 08:22:32;;;;;;;13.80;7.53;;;;;;;;;;4896968;29;20069;-68
2022/03/22 08:24:58;;;;;;;11.77;6.60;;;;;;;;;;4897076;29;20388;-72
2022/03/22 08:27:23;;;;;;;12.80;7.55;;;;;;;;;;4896801;29;20020;-72
2022/03/22 08:29:51;;;;;;;10.25;6.50;;;;;;;;;;4897123;29;20111;-72
2022/03/22 08:32:17;;;;;;;12.82;6.80;;;;;;;;;;4897416;29;20031;-72
2022/03/22 08:34:43;;;;;;;15.38;6.68;;;;;;;;;;4911732;29;20037;-73
2022/03/22 08:37:11;;;;;;;10.50;6.68;;;;;;;;;;4897443;29;20408;-72
2022/03/22 08:39:37;;;;;;;10.40;6.38;;;;;;;;;;4897117;29;20408;-76
2022/03/22 08:42:03;;;;;;;10.63;6.47;;;;;;;;;;4896930;29;20024;-74
2022/03/22 08:44:29;;;;;;;10.18;6.40;;;;;;;;;;4896955;29;20056;-73
2022/03/22 08:46:54;;;;;;;10.52;6.40;;;;;;;;;;4896524;29;20392;-73
2022/03/22 08:49:20;;;;;;;12.68;6.78;;;;;;;;;;4896980;29;20396;-75
2022/03/22 08:51:49;;;;;;;10.50;6.72;;;;;;;;;;4896717;29;20473;-75
2022/03/22 08:54:17;;;;;;;9.70;6.70;;;;;;;;;;4897056;29;20127;-75
2022/03/22 08:56:42;;;;;;;14.95;8.38;;;;;;;;;;4896935;29;20025;-76
2022/03/22 08:59:09;;;;;;;11.77;7.13;;;;;;;;;;4897326;29;20032;-78
2022/03/22 09:01:34;;;;;;;11.25;6.82;;;;;;;;;;4896877;29;20024;-73
2022/03/22 09:06:44;;;;;;;15.82;7.30;;;;;;;;;;4896820;29;20037;-74
2022/03/22 09:09:10;;;;;;;11.75;6.90;;;;;;;;;;4896238;29;20084;-77
2022/03/22 09:11:39;;;;;;;12.40;7.18;;;;;;;;;;4910968;29;20064;-76
2022/03/22 09:14:05;;;;;;;13.38;6.72;;;;;;;;;;4896580;29;20417;-75
2022/03/22 09:16:32;;;;;;;12.82;8.00;;;;;;;;;;4898632;29;20123;-74
2022/03/22 09:18:58;;;;;;;10.82;6.75;;;;;;;;;;4900624;29;20037;-73
2022/03/22 09:21:26;;;;;;;10.60;6.75;;;;;;;;;;4900304;29;20036;-72
2022/03/22 09:23:52;;;;;;;13.02;6.13;;;;;;;;;;4900662;29;20084;-73
2022/03/22 09:26:18;;;;;;;11.63;6.97;;;;;;;;;;4899012;29;20044;-74
2022/03/22 09:28:44;;;;;;;11.93;6.70;;;;;;;;;;4900562;29;20032;-76
2022/03/22 09:31:09;;;;;;;15.85;9.40;;;;;;;;;;4900404;29;20111;-75
2022/03/22 09:33:36;;;;;;;12.73;7.10;;;;;;;;;;4900843;29;20060;-75
2022/03/22 09:36:03;;;;;;;17.55;7.80;;;;;;;;;;4900095;29;20146;-75
2022/03/22 09:38:29;;;;;;;10.05;6.70;;;;;;;;;;4899977;29;20111;-74
2022/03/22 09:40:55;;;;;;;10.50;6.55;;;;;;;;;;4900050;29;20071;-72
2022/03/22 09:43:23;;;;;;;11.07;7.60;;;;;;;;;;4900176;29;20044;-73
2022/03/22 09:45:51;;;;;;;13.57;6.63;;;;;;;;;;4899891;29;20091;-71
2022/03/22 09:48:17;;;;;;;10.85;6.68;;;;;;;;;;4900150;29;20091;-76
2022/03/22 09:53:29;;;;;;;11.70;6.85;;;;;;;;;;4899581;29;20068;-77
2022/03/22 09:55:55;;;;;;;11.80;6.80;;;;;;;;;;4899941;29;20047;-77
2022/03/22 09:58:21;;;;;;;12.82;7.65;;;;;;;;;;4899878;29;20441;-77
2022/03/22 10:00:47;;;;;;;19.35;6.93;;;;;;;;;;4904459;29;20044;-74
2022/03/22 10:03:21;;;;;;;14.85;7.80;;;;;;;;;;4917714;29;20054;-76
2022/03/22 10:06:05;;;;;;;10.07;6.80;;;;;;;;;;4917028;29;20083;-77
2022/03/22 10:08:31;;;;;;;;;;;;;;;;;;4917766;29;20042;-77
2022/03/22 10:10:58;;;;;;;12.60;6.68;;;;;;;;;;4917346;29;19915;-75
2022/03/22 10:13:25;;;;;;;13.02;7.57;;;;;;;;;;4918110;29;20051;-74
2022/03/22 10:15:59;;;;;;;11.35;7.03;;;;;;;;;;4917226;29;20510;-76
2022/03/22 10:18:25;;;;;;;11.02;7.10;;;;;;;;;;4913217;29;20047;-76
2022/03/22 10:21:01;;;;;;;15.90;7.82;;;;;;;;;;4898777;29;20104;-77
2022/03/22 10:23:28;;;;;;;12.82;7.30;;;;;;;;;;4898442;29;20119;-76
2022/03/22 10:26:07;;;;;;;12.43;6.72;;;;;;;;;;4897877;29;20028;-76
2022/03/22 10:28:35;;;;;;;16.02;7.40;;;;;;;;;;4898635;29;20119;-76
2022/03/22 10:31:01;;;;;;;18.58;8.50;;;;;;;;;;4898386;29;20052;-78
2022/03/22 10:33:27;;;;;;;10.45;7.30;;;;;;;;;;4898346;29;20041;-75
2022/03/22 10:35:53;;;;;;;14.43;7.05;;;;;;;;;;4912903;29;20413;-77
2022/03/22 10:38:19;;;;;;;14.98;6.93;;;;;;;;;;4897906;29;20056;-76
2022/03/22 10:40:47;;;;;;;12.20;7.07;;;;;;;;;;4897851;29;20029;-77
2022/03/22 10:43:15;;;;;;;13.45;7.15;;;;;;;;;;4897329;29;20032;-74
2022/03/22 10:45:44;;;;;;;18.92;6.63;;;;;;;;;;4897421;29;20039;-76
2022/03/22 10:48:10;;;;;;;11.85;6.97;;;;;;;;;;4897983;29;20069;-77
2022/03/22 10:50:39;;;;;;;13.02;6.68;;;;;;;;;;4898178;29;20037;-75
2022/03/22 10:53:05;;;;;;;16.83;7.72;;;;;;;;;;4897170;29;20162;-76
2022/03/22 10:55:32;;;;;;;19.08;6.80;;;;;;;;;;4897479;29;20036;-76
2022/03/22 10:58:01;;;;;;;10.63;6.28;;;;;;;;;;4897774;29;20488;-76
2022/03/22 11:00:28;;;;;;;12.15;5.72;;;;;;;;;;4897650;29;20068;-76
2022/03/22 11:02:55;;;;;;;12.85;7.75;;;;;;;;;;4896863;29;20040;-76
2022/03/22 11:05:23;;;;;;;9.13;5.57;;;;;;;;;;4897646;29;20099;-76
2022/03/22 11:07:51;;;;;;;10.38;6.32;;;;;;;;;;4897374;29;20207;-75
2022/03/22 11:10:29;;;;;;;11.35;5.20;;;;;;;;;;4897594;29;20024;-76
2022/03/22 11:13:00;;;;;;;9.43;5.97;;;;;;;;;;4896892;29;20091;-78
2022/03/22 11:15:47;;;;;;;12.30;6.40;;;;;;;;;;4897144;29;20510;-75
2022/03/22 11:18:14;;;;;;;10.90;6.20;;;;;;;;;;4897500;29;20122;-73
2022/03/22 11:20:55;;;;;;;9.18;5.38;;;;;;;;;;4897239;29;20083;-76
2022/03/22 11:23:23;;;;;;;10.02;5.20;;;;;;;;;;4896955;29;20036;-75
2022/03/22 11:25:49;;;;;;;9.68;5.80;;;;;;;;;;4896358;29;20480;-74
2022/03/22 11:28:21;;;;;;;13.65;5.25;;;;;;;;;;4880044;29;20080;-74
2022/03/22 11:30:48;;;;;;;12.67;5.77;;;;;;;;;;4896847;29;20040;-73
2022/03/22 11:36:26;;;;;;;10.18;5.50;;;;;;;;;;4896939;29;20400;-74
2022/03/22 11:38:54;;;;;;;9.02;5.28;;;;;;;;;;4895477;29;20033;-76
2022/03/22 11:44:29;;;;;;;12.25;6.85;;;;;;;;;;4896459;29;20049;-74
2022/03/22 11:47:14;;;;;;;10.93;6.10;;;;;;;;;;4896344;29;20028;-73
2022/03/22 11:49:52;;;;;;;9.02;5.50;;;;;;;;;;4897294;29;20055;-78
2022/03/22 11:52:20;;;;;;;10.82;5.28;;;;;;;;;;4896537;29;20377;-73
2022/03/22 11:54:56;;;;;;;8.75;5.88;;;;;;;;;;4896559;29;20039;-77
2022/03/22 11:57:22;;;;;;;8.55;5.82;;;;;;;;;;4896662;29;20037;-77
2022/03/22 11:59:48;;;;;;;7.70;4.90;;;;;;;;;;4896612;29;20036;-76
2022/03/22 12:02:16;;;;;;;8.35;4.57;;;;;;;;;;4896791;29;20044;-74
2022/03/22 12:04:52;;;;;;;7.68;4.13;;;;;;;;;;4896733;29;20056;-75
2022/03/22 12:07:22;;;;;;;8.77;5.18;;;;;;;;;;4896306;29;20033;-74
2022/03/22 12:09:48;;;;;;;9.50;4.80;;;;;;;;;;4897143;29;20028;-74
2022/03/22 12:12:16;;;;;;;9.13;5.18;;;;;;;;;;4896089;29;20352;-73
2022/03/22 12:14:45;;;;;;;10.52;4.80;;;;;;;;;;4896670;29;20136;-73
2022/03/22 12:17:12;;;;;;;12.07;5.53;;;;;;;;;;4896650;29;20472;-75
2022/03/22 12:19:38;;;;;;;9.73;4.80;;;;;;;;;;4896477;29;20033;-73
2022/03/22 12:22:08;;;;;;;7.63;4.70;;;;;;;;;;4896451;29;20044;-72
2022/03/22 12:24:35;;;;;;;10.68;4.72;;;;;;;;;;4896609;29;20040;-74
2022/03/22 12:27:03;;;;;;;7.47;4.88;;;;;;;;;;4896639;29;20020;-71
2022/03/22 12:29:29;;;;;;;8.18;4.15;;;;;;;;;;4896533;29;20045;-74
2022/03/22 12:31:55;;;;;;;11.57;4.85;;;;;;;;;;4910734;29;20036;-76
2022/03/22 12:34:26;;;;;;;9.85;4.10;;;;;;;;;;4911234;29;20080;-73
2022/03/22 12:36:53;;;;;;;6.82;4.10;;;;;;;;;;4895204;29;20037;-73
2022/03/22 12:39:19;;;;;;;9.23;4.65;;;;;;;;;;4890924;29;20040;-72
2022/03/22 12:41:46;;;;;;;7.20;4.13;;;;;;;;;;4895267;29;20047;-73
2022/03/22 12:44:12;;;;;;;7.75;4.35;;;;;;;;;;4896098;29;20028;-75
2022/03/22 12:46:38;;;;;;;8.68;4.70;;;;;;;;;;4895781;29;20180;-74
2022/03/22 12:49:05;;;;;;;7.15;4.32;;;;;;;;;;4895758;29;20032;-71
2022/03/22 12:51:31;;;;;;;6.60;4.28;;;;;;;;;;4895414;29;20513;-75
2022/03/22 12:54:01;;;;;;;6.97;4.25;;;;;;;;;;4895542;29;20032;-76
2022/03/22 12:56:27;;;;;;;6.95;3.72;;;;;;;;;;4896136;29;20088;-76
2022/03/22 12:58:56;;;;;;;6.43;4.22;;;;;;;;;;4894712;29;20036;-76
2022/03/22 13:01:22;;;;;;;8.80;4.85;;;;;;;;;;4894513;29;20096;-75
2022/03/22 13:03:48;;;;;;;9.43;4.70;;;;;;;;;;4891095;29;20029;-74
2022/03/22 13:06:14;;;;;;;8.93;4.75;;;;;;;;;;4895799;29;20040;-76
2022/03/22 13:11:27;;;;;;;9.20;5.03;;;;;;;;;;4894445;29;20037;-77
2022/03/22 13:16:43;;;;;;;8.88;3.90;;;;;;;;;;4895905;29;20116;-78
2022/03/22 13:19:09;;;;;;;8.23;4.53;;;;;;;;;;4895416;29;20081;-78
2022/03/22 13:21:40;;;;;;;10.38;4.75;;;;;;;;;;4895751;29;20056;-76
2022/03/22 13:24:17;;;;;;;7.82;4.32;;;;;;;;;;4895098;29;20516;-76
2022/03/22 13:27:02;;;;;;;13.05;4.53;;;;;;;;;;4890280;29;20067;-76
2022/03/22 13:29:40;;;;;;;7.93;4.70;;;;;;;;;;4887884;29;20033;-78
2022/03/22 13:32:08;;;;;;;7.95;4.45;;;;;;;;;;4893983;29;20036;-75
2022/03/22 13:34:36;;;;;;;7.95;4.22;;;;;;;;;;4895244;29;20084;-76
2022/03/22 13:37:19;;;;;;;6.63;4.20;;;;;;;;;;4895460;29;20083;-76
2022/03/22 13:39:48;;;;;;;6.75;4.57;;;;;;;;;;4894833;29;20512;-75
2022/03/22 13:42:19;;;;;;;9.85;5.18;;;;;;;;;;4893581;29;20052;-74
2022/03/22 13:44:55;;;;;;;10.88;5.43;;;;;;;;;;4892218;29;20484;-78
2022/03/22 13:47:24;;;;;;;12.05;5.65;;;;;;;;;;4895299;29;20480;-77
2022/03/22 13:49:49;;;;;;;11.43;4.93;;;;;;;;;;4895022;29;20480;-75
2022/03/22 13:52:25;;;;;;;7.63;4.57;;;;;;;;;;4893154;29;20043;-78
2022/03/22 13:54:53;;;;;;;8.18;4.50;;;;;;;;;;4895493;29;20076;-75
2022/03/22 13:57:20;;;;;;;6.97;4.28;;;;;;;;;;4894283;29;20040;-76
2022/03/22 13:59:46;;;;;;;9.60;5.00;;;;;;;;;;4894132;29;20033;-74
2022/03/22 14:02:11;;;;;;;10.05;5.32;;;;;;;;;;4896415;29;20029;-78
2022/03/22 14:04:37;;;;;;;8.57;4.40;;;;;;;;;;4897186;29;20034;-80
2022/03/22 14:07:05;;;;;;;9.73;5.30;;;;;;;;;;4892122;29;20367;-76
2022/03/22 14:09:32;;;;;;;6.43;4.38;;;;;;;;;;4898729;29;20062;-79
2022/03/22 14:11:59;;;;;;;11.63;5.75;;;;;;;;;;4897271;29;20040;-75
2022/03/22 14:14:25;;;;;;;13.25;5.47;;;;;;;;;;4898745;29;20131;-81
2022/03/22 14:16:53;;;;;;;9.80;5.05;;;;;;;;;;4883696;29;20072;-77
2022/03/22 14:19:20;;;;;;;9.50;5.35;;;;;;;;;;4879079;29;20051;-73
2022/03/22 14:21:47;;;;;;;15.10;5.60;;;;;;;;;;4879101;29;20037;-73
2022/03/22 14:24:13;;;;;;;11.38;6.35;;;;;;;;;;4879815;29;20029;-74
2022/03/22 14:26:38;;;;;;;8.25;5.03;;;;;;;;;;4879103;29;20506;-73
2022/03/22 14:29:04;;;;;;;10.85;5.30;;;;;;;;;;4879846;29;20048;-73
2022/03/22 14:31:30;;;;;;;7.10;4.72;;;;;;;;;;4880159;29;20714;-72
2022/03/22 14:33:56;;;;;;;8.57;4.97;;;;;;;;;;4879793;29;20036;-75
2022/03/22 14:36:22;;;;;;;9.93;4.10;;;;;;;;;;4879379;29;20056;-74
2022/03/22 14:38:49;;;;;;;7.60;4.70;;;;;;;;;;4877927;29;20513;-73
2022/03/22 14:41:27;;;;;;;7.88;4.38;;;;;;;;;;4872974;29;20056;-72
2022/03/22 14:43:55;;;;;;;8.43;4.60;;;;;;;;;;4879423;29;20045;-72
2022/03/22 14:46:24;;;;;;;8.52;5.07;;;;;;;;;;4879501;29;20068;-76
2022/03/22 14:48:51;;;;;;;6.97;4.18;;;;;;;;;;4879073;29;20454;-79
2022/03/22 14:54:02;;;;;;;10.52;4.50;;;;;;;;;;4878741;29;20037;-73
2022/03/22 14:54:05;;;;;;;9.25;4.88;;;;;;;;;;4879346;29;20560;-75
2022/03/22 14:59:16;;;;;;;10.00;5.35;;;;;;;;;;4879048;29;20048;-74
2022/03/22 15:01:42;;;;;;;13.50;5.40;;;;;;;;;;4878677;29;20040;-75
2022/03/22 15:04:09;;;;;;;9.00;5.60;;;;;;;;;;4878788;29;20037;-75
2022/03/22 15:06:37;;;;;;;12.52;5.47;;;;;;;;;;4878899;29;20064;-72
2022/03/22 15:09:05;;;;;;;10.55;6.30;;;;;;;;;;4878446;29;20033;-72
2022/03/22 15:11:33;;;;;;;14.63;5.95;;;;;;;;;;4877253;29;20029;-73
2022/03/22 15:13:59;;;;;;;9.32;5.72;;;;;;;;;;4872740;29;20029;-73
2022/03/22 15:16:25;;;;;;;10.02;5.57;;;;;;;;;;4877054;29;20515;-73
2022/03/22 15:18:51;;;;;;;12.40;6.18;;;;;;;;;;4872243;29;20049;-71
2022/03/22 15:21:17;;;;;;;16.98;6.68;;;;;;;;;;4858750;29;20035;-74
2022/03/22 15:23:43;;;;;;;14.35;6.18;;;;;;;;;;4860411;29;20054;-73